Time;durP1;ratioP1;P1;durP2;ratioP2;P2;SDS_P1;SDS_P2;PMS_P1;PMS_P2;Temp;Humidity;BMP_temperature;BMP_pressure;BME280_temperature;BME280_humidity;BME280_pressure;Samples;Min_cycle;Max_cycle;Signal;HPM_P1;HPM_P2
2022/09/27 00:01:13;;;;;;;10.25;6.40;;;;;;;17.88;100.00;99975.39;1722775;82;21072;-70
2022/09/27 00:03:41;;;;;;;9.05;5.12;;;;;;;17.91;100.00;99976.45;1723022;83;21045;-71
2022/09/27 00:06:25;;;;;;;9.80;6.00;;;;;;;17.94;100.00;99970.98;1722703;82;21614;-70
2022/09/27 00:08:53;;;;;;;8.88;5.85;;;;;;;17.94;100.00;99957.50;1722764;82;21077;-70
2022/09/27 00:11:37;;;;;;;10.03;5.65;;;;;;;17.96;100.00;99954.30;1722751;82;21093;-70
2022/09/27 00:14:06;;;;;;;9.13;6.20;;;;;;;17.97;100.00;99958.53;1722590;83;21088;-71
2022/09/27 00:16:37;;;;;;;7.37;5.40;;;;;;;17.93;100.00;99955.02;1722812;83;21506;-71
2022/09/27 00:19:09;;;;;;;10.78;5.87;;;;;;;17.89;100.00;99947.12;1722722;83;21100;-71
2022/09/27 00:21:37;;;;;;;9.25;5.75;;;;;;;17.87;100.00;99948.54;1722736;83;21052;-71
2022/09/27 00:24:04;;;;;;;10.90;5.87;;;;;;;17.86;100.00;99944.27;1722688;83;21081;-71
2022/09/27 00:26:33;;;;;;;7.95;5.20;;;;;;;17.81;100.00;99932.10;1722418;83;21096;-72
2022/09/27 00:29:00;;;;;;;10.63;5.67;;;;;;;17.80;100.00;99924.77;1722919;83;21001;-70
2022/09/27 00:31:29;;;;;;;9.20;4.47;;;;;;;17.78;100.00;99915.42;1722920;83;21064;-71
2022/09/27 00:33:59;;;;;;;7.55;4.85;;;;;;;17.79;100.00;99908.79;1722963;83;22124;-71
2022/09/27 00:36:28;;;;;;;13.20;4.87;;;;;;;17.76;100.00;99905.16;1722714;83;21762;-71
2022/09/27 00:38:55;;;;;;;7.75;5.65;;;;;;;17.73;100.00;99915.00;1722763;83;21120;-71
2022/09/27 00:41:27;;;;;;;7.62;4.85;;;;;;;17.69;100.00;99919.63;1722604;83;21076;-71
2022/09/27 00:44:03;;;;;;;9.13;5.70;;;;;;;17.66;100.00;99909.94;1722774;83;21081;-71
2022/09/27 00:46:40;;;;;;;9.35;5.40;;;;;;;17.63;100.00;99909.24;1722953;83;21021;-71
2022/09/27 00:49:22;;;;;;;9.95;5.37;;;;;;;17.59;100.00;99908.33;1722608;83;21049;-71
2022/09/27 00:51:55;;;;;;;12.98;5.47;;;;;;;17.56;100.00;99912.51;1722372;83;21548;-71
2022/09/27 00:54:25;;;;;;;7.87;5.10;;;;;;;17.53;100.00;99907.54;1721168;82;21033;-71
2022/09/27 00:56:53;;;;;;;7.70;5.10;;;;;;;17.52;100.00;99904.13;1722854;83;21065;-71
2022/09/27 00:59:25;;;;;;;7.17;5.20;;;;;;;17.49;100.00;99890.05;1722726;83;21578;-71
2022/09/27 01:01:53;;;;;;;11.50;5.70;;;;;;;17.46;100.00;99892.92;1704086;83;21077;-71
2022/09/27 01:04:25;;;;;;;7.42;5.50;;;;;;;17.45;100.00;99895.64;1722677;83;21049;-71
2022/09/27 01:06:52;;;;;;;9.20;5.75;;;;;;;17.44;100.00;99890.92;1722903;83;21006;-71
2022/09/27 01:09:21;;;;;;;14.63;6.95;;;;;;;17.41;100.00;99893.28;1722887;83;21014;-71
2022/09/27 01:11:59;;;;;;;7.47;6.67;;;;;;;17.41;100.00;99889.38;1722651;83;21046;-71
2022/09/27 01:15:01;;;;;;;10.53;6.70;;;;;;;17.41;100.00;99875.55;1721070;82;21525;-71
2022/09/27 01:17:54;;;;;;;11.35;7.53;;;;;;;17.37;100.00;99876.27;1722694;82;21049;-71
2022/09/27 01:20:53;;;;;;;10.65;6.75;;;;;;;17.35;100.00;99875.58;1723157;83;21097;-71
2022/09/27 01:24:01;;;;;;;9.55;6.33;;;;;;;17.31;100.00;99870.76;1722670;83;21041;-71
2022/09/27 01:27:00;;;;;;;11.53;6.55;;;;;;;17.32;100.00;99860.23;1722698;83;21631;-70
2022/09/27 01:29:48;;;;;;;11.75;6.92;;;;;;;17.31;100.00;99846.05;1716459;83;21063;-71
2022/09/27 01:32:36;;;;;;;13.40;8.23;;;;;;;17.24;100.00;99841.02;1719535;83;21039;-71
2022/09/27 01:35:40;;;;;;;11.88;7.50;;;;;;;17.19;100.00;99832.27;1718571;83;21674;-71
2022/09/27 01:38:24;;;;;;;13.03;7.55;;;;;;;17.18;100.00;99830.64;1713515;83;21579;-71
2022/09/27 01:41:01;;;;;;;12.13;8.33;;;;;;;17.13;100.00;99836.23;1719382;83;21044;-71
2022/09/27 01:44:01;;;;;;;13.75;7.95;;;;;;;17.09;100.00;99831.38;1715553;83;21087;-71
2022/09/27 01:46:51;;;;;;;14.68;8.88;;;;;;;17.02;100.00;99833.67;1719607;83;21097;-71
2022/09/27 01:49:46;;;;;;;13.75;8.00;;;;;;;16.96;100.00;99831.09;1716007;83;21555;-71
2022/09/27 01:52:18;;;;;;;12.90;9.03;;;;;;;16.96;100.00;99836.29;1719515;83;21536;-70
2022/09/27 01:54:52;;;;;;;13.65;8.75;;;;;;;16.95;100.00;99835.11;1719154;83;21097;-71
2022/09/27 01:57:35;;;;;;;13.75;8.93;;;;;;;16.94;100.00;99833.47;1718212;83;21122;-70
2022/09/27 02:00:08;;;;;;;13.83;9.50;;;;;;;16.94;100.00;99827.80;1717133;83;21698;-70
2022/09/27 02:02:55;;;;;;;14.20;9.88;;;;;;;16.97;100.00;99827.55;1719386;83;21016;-70
2022/09/27 02:05:43;;;;;;;11.15;8.23;;;;;;;16.97;100.00;99809.80;1719517;83;21083;-70
2022/09/27 02:08:32;;;;;;;10.70;8.60;;;;;;;16.96;100.00;99802.48;1718676;83;21532;-71
2022/09/27 02:11:06;;;;;;;10.65;7.17;;;;;;;16.99;100.00;99798.80;1715004;83;21024;-71
2022/09/27 02:13:53;;;;;;;16.32;10.18;;;;;;;16.98;100.00;99806.27;1697327;83;21019;-71
2022/09/27 02:16:51;;;;;;;12.43;7.47;;;;;;;16.97;100.00;99811.11;1690692;83;21583;-71
2022/09/27 02:19:28;;;;;;;10.60;7.50;;;;;;;16.95;100.00;99801.31;1721041;83;21579;-70
2022/09/27 02:22:28;;;;;;;14.33;9.38;;;;;;;16.95;100.00;99793.51;1719217;83;21220;-71
2022/09/27 02:25:15;;;;;;;18.55;10.63;;;;;;;16.93;100.00;99785.02;1717157;83;21122;-70
2022/09/27 02:27:59;;;;;;;15.03;10.58;;;;;;;16.91;100.00;99768.72;1701600;83;21035;-70
2022/09/27 02:30:29;;;;;;;15.65;11.33;;;;;;;16.94;100.00;99764.58;1719715;83;21492;-71
2022/09/27 02:32:58;;;;;;;19.50;10.88;;;;;;;16.93;100.00;99753.36;1719695;83;21515;-71
2022/09/27 02:35:32;;;;;;;18.70;11.80;;;;;;;16.97;100.00;99735.71;1719566;83;21552;-71
2022/09/27 02:38:00;;;;;;;18.00;11.78;;;;;;;16.98;100.00;99724.38;1711622;83;21165;-71
2022/09/27 02:40:34;;;;;;;18.25;12.55;;;;;;;16.98;100.00;99723.08;1719451;83;21055;-72
2022/09/27 02:43:04;;;;;;;18.12;11.53;;;;;;;16.99;100.00;99727.30;1717327;83;21059;-70
2022/09/27 02:45:46;;;;;;;21.17;12.33;;;;;;;16.98;100.00;99715.27;1719522;83;21047;-71
2022/09/27 02:48:39;;;;;;;18.42;12.07;;;;;;;16.96;100.00;99717.17;1719078;83;21023;-71
2022/09/27 02:51:24;;;;;;;18.62;11.85;;;;;;;16.95;100.00;99714.22;1711922;83;21540;-70
2022/09/27 02:54:14;;;;;;;18.15;12.75;;;;;;;16.94;100.00;99709.50;1711548;83;21016;-70
2022/09/27 02:57:21;;;;;;;21.00;12.40;;;;;;;16.92;100.00;99713.19;1714966;83;21480;-70
2022/09/27 03:00:12;;;;;;;21.77;12.85;;;;;;;16.91;100.00;99705.88;1719454;83;21074;-71
2022/09/27 03:03:04;;;;;;;19.15;12.10;;;;;;;16.90;100.00;99701.61;1709393;83;21051;-71
2022/09/27 03:05:47;;;;;;;20.62;12.30;;;;;;;16.91;100.00;99690.73;1719388;83;21031;-71
2022/09/27 03:08:16;;;;;;;19.57;12.13;;;;;;;16.89;100.00;99685.68;1697207;83;21043;-71
2022/09/27 03:10:44;;;;;;;19.90;11.78;;;;;;;16.94;100.00;99685.28;1719253;83;21594;-70
2022/09/27 03:13:12;;;;;;;21.20;12.00;;;;;;;16.96;100.00;99676.40;1719362;83;21122;-70
2022/09/27 03:15:39;;;;;;;17.00;11.68;;;;;;;16.98;100.00;99673.67;1719505;83;21031;-70
2022/09/27 03:18:06;;;;;;;17.75;11.95;;;;;;;16.99;100.00;99668.36;1719511;83;21511;-70
2022/09/27 03:20:37;;;;;;;17.30;10.40;;;;;;;17.02;100.00;99664.18;1703118;83;21582;-70
2022/09/27 03:23:06;;;;;;;19.92;11.65;;;;;;;17.05;100.00;99651.88;1719315;83;21544;-71
2022/09/27 03:25:34;;;;;;;15.32;11.63;;;;;;;17.06;100.00;99640.53;1719359;83;21102;-70
2022/09/27 03:28:01;;;;;;;14.68;11.33;;;;;;;17.07;100.00;99643.47;1719260;83;21315;-71
2022/09/27 03:30:29;;;;;;;20.08;11.95;;;;;;;17.07;100.00;99633.06;1719589;83;21044;-71
2022/09/27 03:32:56;;;;;;;16.97;12.23;;;;;;;17.10;100.00;99626.31;1719493;83;21075;-71
2022/09/27 03:35:25;;;;;;;15.00;11.85;;;;;;;17.09;100.00;99623.36;1719153;83;21545;-71
2022/09/27 03:37:52;;;;;;;19.25;10.13;;;;;;;17.17;100.00;99624.37;1720863;83;21208;-71
2022/09/27 03:40:20;;;;;;;13.35;10.48;;;;;;;17.26;100.00;99622.74;1719592;83;21130;-71
2022/09/27 03:42:49;;;;;;;13.98;10.38;;;;;;;17.33;100.00;99627.74;1719278;83;21078;-71
2022/09/27 03:45:17;;;;;;;12.82;9.33;;;;;;;17.38;100.00;99627.37;1719438;83;21580;-71
2022/09/27 03:47:44;;;;;;;16.45;9.70;;;;;;;17.42;100.00;99629.56;1719349;83;21098;-71
2022/09/27 03:50:12;;;;;;;12.63;9.13;;;;;;;17.42;100.00;99626.14;1719083;83;21079;-71
2022/09/27 03:52:41;;;;;;;13.93;9.18;;;;;;;17.43;100.00;99636.39;1719286;83;21015;-71
2022/09/27 03:55:10;;;;;;;16.82;9.35;;;;;;;17.43;100.00;99636.39;1719812;83;21087;-71
2022/09/27 03:57:45;;;;;;;12.88;9.23;;;;;;;17.46;100.00;99637.93;1719510;83;21083;-71
2022/09/27 04:00:14;;;;;;;13.08;8.60;;;;;;;17.48;100.00;99643.83;1719676;83;21003;-71
2022/09/27 04:02:41;;;;;;;15.98;9.50;;;;;;;17.52;100.00;99643.09;1719840;83;21007;-71
2022/09/27 04:05:29;;;;;;;11.95;8.35;;;;;;;17.56;100.00;99641.86;1719707;83;21122;-71
2022/09/27 04:08:05;;;;;;;11.95;8.55;;;;;;;17.61;100.00;99634.46;1718111;83;21023;-71
2022/09/27 04:10:33;;;;;;;11.25;8.18;;;;;;;17.70;100.00;99634.97;1719276;83;21090;-71
2022/09/27 04:13:01;;;;;;;12.55;8.80;;;;;;;17.79;100.00;99645.04;1719537;83;21032;-71
2022/09/27 04:15:30;;;;;;;13.18;8.43;;;;;;;17.86;100.00;99646.64;1719384;83;21012;-71
2022/09/27 04:17:59;;;;;;;11.73;8.15;;;;;;;17.92;100.00;99642.20;1678117;83;21051;-71
2022/09/27 04:20:36;;;;;;;15.40;7.83;;;;;;;17.96;100.00;99644.88;1719551;83;21560;-71
2022/09/27 04:23:10;;;;;;;10.38;7.33;;;;;;;17.90;100.00;99648.02;1719361;83;21043;-71
2022/09/27 04:25:40;;;;;;;10.98;7.25;;;;;;;17.89;100.00;99638.09;1705780;84;21619;-71
2022/09/27 04:28:09;;;;;;;9.98;7.33;;;;;;;17.94;100.00;99639.83;1704388;84;21091;-71
2022/09/27 04:30:36;;;;;;;11.03;6.10;;;;;;;18.01;100.00;99641.39;1714300;83;21551;-71
2022/09/27 04:33:13;;;;;;;10.75;6.25;;;;;;;18.04;100.00;99641.10;1719341;83;21032;-71
2022/09/27 04:39:06;;;;;;;10.70;6.53;;;;;;;18.11;100.00;99645.30;1719444;83;21012;-71
2022/09/27 04:41:34;;;;;;;9.85;6.05;;;;;;;18.14;100.00;99638.50;1721158;83;21071;-72
2022/09/27 04:44:05;;;;;;;10.03;6.00;;;;;;;18.22;100.00;99644.66;1719274;83;21059;-71
2022/09/27 04:46:32;;;;;;;7.60;5.12;;;;;;;18.33;100.00;99646.78;1719718;83;21079;-71
2022/09/27 04:49:00;;;;;;;8.85;5.85;;;;;;;18.42;100.00;99643.35;1719177;83;21047;-72
2022/09/27 04:51:29;;;;;;;7.05;5.12;;;;;;;18.50;100.00;99655.69;1719203;83;21063;-71
2022/09/27 04:53:57;;;;;;;9.13;7.08;;;;;;;18.53;100.00;99666.67;1719648;83;21130;-71
2022/09/27 04:56:25;;;;;;;10.98;6.58;;;;;;;18.57;100.00;99665.42;1713356;83;21051;-71
2022/09/27 04:58:53;;;;;;;8.83;5.92;;;;;;;18.64;100.00;99659.66;1719698;83;21164;-72
2022/09/27 05:01:22;;;;;;;8.33;5.58;;;;;;;18.72;100.00;99659.77;1716855;83;21020;-72
2022/09/27 05:03:51;;;;;;;11.88;7.17;;;;;;;18.76;100.00;99661.13;1719709;83;21487;-71
2022/09/27 05:06:19;;;;;;;8.23;5.25;;;;;;;18.82;100.00;99660.59;1705459;84;21079;-71
2022/09/27 05:08:47;;;;;;;11.10;6.85;;;;;;;18.92;100.00;99662.70;1715619;83;21055;-72
2022/09/27 05:11:14;;;;;;;10.55;6.47;;;;;;;19.04;100.00;99662.50;1719294;83;21070;-71
2022/09/27 05:13:43;;;;;;;6.28;4.45;;;;;;;19.08;100.00;99674.30;1719302;83;21083;-72
2022/09/27 05:16:11;;;;;;;9.80;6.33;;;;;;;19.15;100.00;99671.47;1719627;83;21075;-70
2022/09/27 05:18:52;;;;;;;12.10;6.42;;;;;;;19.26;100.00;99683.50;1682108;83;21551;-71
2022/09/27 05:21:37;;;;;;;9.28;5.17;;;;;;;19.36;100.00;99681.20;1719539;83;21036;-71
2022/09/27 05:24:08;;;;;;;10.63;6.53;;;;;;;19.41;100.00;99678.16;1719125;83;21071;-71
2022/09/27 05:26:36;;;;;;;11.57;7.10;;;;;;;19.35;100.00;99676.94;1721184;83;21134;-72
2022/09/27 05:29:03;;;;;;;12.98;7.25;;;;;;;19.33;100.00;99680.66;1719180;83;21535;-71
2022/09/27 05:31:31;;;;;;;8.03;5.80;;;;;;;19.20;100.00;99678.36;1719435;83;21091;-71
2022/09/27 05:33:58;;;;;;;12.25;7.20;;;;;;;19.29;100.00;99681.92;1719346;83;21595;-72
2022/09/27 05:36:27;;;;;;;10.70;6.45;;;;;;;19.34;100.00;99683.14;1719271;82;21111;-72
2022/09/27 05:38:54;;;;;;;11.60;6.97;;;;;;;19.46;100.00;99679.02;1706068;83;21040;-71
2022/09/27 05:41:22;;;;;;;13.43;6.62;;;;;;;19.53;100.00;99695.75;1720910;83;21020;-71
2022/09/27 05:43:49;;;;;;;10.32;6.87;;;;;;;19.60;100.00;99710.67;1719496;83;21082;-72
2022/09/27 05:46:16;;;;;;;9.35;6.58;;;;;;;19.63;100.00;99720.02;1719346;83;21737;-72
2022/09/27 05:48:43;;;;;;;13.30;7.78;;;;;;;19.71;100.00;99716.72;1718976;83;21047;-72
2022/09/27 05:51:10;;;;;;;12.43;7.50;;;;;;;19.74;100.00;99723.75;1719136;83;21047;-71
2022/09/27 05:53:39;;;;;;;13.13;8.48;;;;;;;19.76;100.00;99721.81;1719214;83;21020;-72
2022/09/27 05:56:08;;;;;;;15.70;9.23;;;;;;;19.85;100.00;99721.45;1709676;83;21074;-72
2022/09/27 05:58:38;;;;;;;13.80;8.68;;;;;;;19.93;100.00;99724.60;1719585;83;21579;-73
2022/09/27 06:01:08;;;;;;;12.65;7.85;;;;;;;19.94;100.00;99735.41;1719568;83;21074;-72
2022/09/27 06:03:56;;;;;;;14.53;8.98;;;;;;;20.05;100.00;99733.06;1719457;83;21122;-72
2022/09/27 06:06:38;;;;;;;20.25;11.12;;;;;;;19.96;100.00;99746.53;1717599;83;21116;-71
2022/09/27 06:09:11;;;;;;;9.73;6.40;;;;;;;19.99;100.00;99739.23;1719166;83;21091;-71
2022/09/27 06:11:39;;;;;;;18.20;10.43;;;;;;;20.06;100.00;99734.72;1719591;83;21548;-71
2022/09/27 06:14:06;;;;;;;15.90;11.35;;;;;;;20.06;100.00;99736.84;1719448;83;21027;-72
2022/09/27 06:16:37;;;;;;;16.80;11.83;;;;;;;20.11;100.00;99731.16;1719528;83;21027;-72
2022/09/27 06:19:04;;;;;;;14.28;11.22;;;;;;;20.13;100.00;99730.53;1719376;83;21044;-73
2022/09/27 06:21:31;;;;;;;20.02;12.53;;;;;;;20.11;100.00;99725.94;1719187;83;21090;-72
2022/09/27 06:23:59;;;;;;;20.72;12.28;;;;;;;20.00;100.00;99739.55;1719828;83;21558;-71
2022/09/27 06:26:27;;;;;;;14.28;10.35;;;;;;;19.92;100.00;99745.17;1707902;83;21118;-72
2022/09/27 06:28:57;;;;;;;14.03;8.98;;;;;;;19.95;100.00;99735.73;1719383;83;21077;-73
2022/09/27 06:31:24;;;;;;;15.45;10.08;;;;;;;20.01;100.00;99724.69;1716991;83;21090;-72
2022/09/27 06:34:02;;;;;;;20.68;14.07;;;;;;;20.10;100.00;99732.14;1718589;83;21074;-73
2022/09/27 06:36:32;;;;;;;16.67;12.60;;;;;;;20.15;100.00;99728.13;1719214;83;21055;-72
2022/09/27 06:39:00;;;;;;;22.32;13.20;;;;;;;20.17;100.00;99739.25;1719657;83;21096;-71
2022/09/27 06:41:36;;;;;;;21.60;15.05;;;;;;;20.27;100.00;99743.56;1719308;83;21016;-72
2022/09/27 06:44:22;;;;;;;13.70;11.93;;;;;;;20.28;100.00;99746.04;1716713;83;21040;-73
2022/09/27 06:46:54;;;;;;;20.15;14.10;;;;;;;20.42;100.00;99752.55;1719492;83;21075;-72
2022/09/27 06:49:32;;;;;;;17.95;11.35;;;;;;;20.49;100.00;99754.88;1703698;83;21091;-72
2022/09/27 06:52:00;;;;;;;21.37;14.07;;;;;;;20.59;100.00;99756.14;1719172;83;21126;-72
2022/09/27 06:54:28;;;;;;;20.15;15.70;;;;;;;20.70;100.00;99765.53;1719384;83;21020;-72
2022/09/27 06:56:55;;;;;;;20.17;13.93;;;;;;;20.76;100.00;99754.47;1719261;83;21074;-72
2022/09/27 07:02:27;;;;;;;20.82;14.03;;;;;;;20.94;100.00;99740.86;1717476;83;21488;-72
2022/09/27 07:05:11;;;;;;;15.05;11.60;;;;;;;21.05;100.00;99746.35;1718260;83;21059;-72
2022/09/27 07:07:42;;;;;;;18.32;13.68;;;;;;;21.05;100.00;99750.77;1719086;83;21074;-72
2022/09/27 07:10:11;;;;;;;20.48;14.55;;;;;;;21.03;100.00;99748.80;1719156;83;21051;-72
2022/09/27 07:12:38;;;;;;;17.23;12.28;;;;;;;21.04;100.00;99754.34;1719156;83;21686;-72
2022/09/27 07:15:07;;;;;;;18.52;10.72;;;;;;;21.14;100.00;99756.37;1719384;83;21007;-72
2022/09/27 07:17:36;;;;;;;12.07;8.43;;;;;;;21.21;100.00;99765.27;1719378;83;21067;-72
2022/09/27 07:20:04;;;;;;;9.03;7.58;;;;;;;21.27;100.00;99769.88;1719315;83;21052;-71
2022/09/27 07:22:32;;;;;;;11.93;7.70;;;;;;;21.14;100.00;99776.81;1719546;83;21586;-72
2022/09/27 07:25:01;;;;;;;9.85;7.30;;;;;;;21.22;100.00;99776.05;1697197;83;21055;-72
2022/09/27 07:27:28;;;;;;;9.10;6.92;;;;;;;21.20;100.00;99764.41;1718939;83;21103;-70
2022/09/27 07:29:55;;;;;;;9.23;6.75;;;;;;;21.24;100.00;99762.81;1719177;83;21055;-72
2022/09/27 07:32:24;;;;;;;7.97;6.75;;;;;;;21.39;100.00;99767.32;1716622;83;21022;-72
2022/09/27 07:34:52;;;;;;;10.03;6.80;;;;;;;21.51;100.00;99770.53;1721084;83;21081;-72
2022/09/27 07:37:20;;;;;;;8.53;6.53;;;;;;;21.51;100.00;99775.77;1722657;83;21096;-73
2022/09/27 07:39:47;;;;;;;7.25;6.45;;;;;;;21.51;100.00;99784.09;1747737;80;21041;-72
2022/09/27 07:42:14;;;;;;;10.60;6.60;;;;;;;21.75;100.00;99782.07;1767028;80;21462;-72
2022/09/27 07:44:44;;;;;;;6.47;5.78;;;;;;;21.76;100.00;99791.59;1757266;80;21138;-72
2022/09/27 07:47:19;;;;;;;6.70;5.75;;;;;;;21.83;100.00;99791.77;1726517;80;21065;-71
2022/09/27 07:50:11;;;;;;;6.85;5.83;;;;;;;21.78;100.00;99793.06;1765213;80;21033;-72
2022/09/27 07:52:46;;;;;;;6.67;5.62;;;;;;;21.77;100.00;99792.72;1759398;80;21033;-72
2022/09/27 07:55:18;;;;;;;6.67;5.12;;;;;;;21.94;100.00;99794.11;1745933;82;21063;-73
2022/09/27 07:57:50;;;;;;;6.53;5.50;;;;;;;21.88;100.00;99804.73;1755027;80;21061;-72
2022/09/27 08:00:19;;;;;;;7.03;5.50;;;;;;;21.87;100.00;99804.88;1771180;80;21053;-72
2022/09/27 08:02:46;;;;;;;6.15;5.55;;;;;;;21.86;100.00;99802.76;1776596;80;21123;-72
2022/09/27 08:05:14;;;;;;;7.95;5.97;;;;;;;21.87;100.00;99794.41;1773352;80;20989;-72
2022/09/27 08:07:43;;;;;;;8.83;5.78;;;;;;;21.94;100.00;99801.97;1777537;81;21061;-72
2022/09/27 08:10:10;;;;;;;7.58;5.40;;;;;;;21.98;100.00;99794.13;1773538;80;21083;-72
2022/09/27 08:12:38;;;;;;;6.67;5.92;;;;;;;21.96;100.00;99800.83;1777246;80;21052;-72
2022/09/27 08:15:08;;;;;;;8.25;5.50;;;;;;;21.89;100.00;99795.87;1767545;80;21315;-73
2022/09/27 08:17:35;;;;;;;9.33;5.70;;;;;;;21.98;100.00;99790.20;1754288;80;21510;-71
2022/09/27 08:20:08;;;;;;;6.85;5.28;;;;;;;22.14;100.00;99791.55;1773131;80;21092;-72
2022/09/27 08:22:42;;;;;;;8.75;5.50;;;;;;;22.42;100.00;99795.72;1725514;81;21057;-72
2022/09/27 08:25:11;;;;;;;6.45;5.33;;;;;;;22.58;100.00;99797.05;1775617;80;21045;-72
2022/09/27 08:27:54;;;;;;;6.17;4.83;;;;;;;22.65;100.00;99805.08;1767141;80;21083;-73
2022/09/27 08:30:24;;;;;;;7.00;5.30;;;;;;;22.92;100.00;99798.20;1775857;80;21032;-72
2022/09/27 08:32:57;;;;;;;8.83;5.10;;;;;;;22.87;100.00;99797.89;1777557;80;21099;-72
2022/09/27 08:35:27;;;;;;;7.55;4.92;;;;;;;22.86;100.00;99798.86;1769486;80;21124;-73
2022/09/27 08:37:59;;;;;;;6.15;4.92;;;;;;;22.73;100.00;99802.45;1762501;80;21264;-69
2022/09/27 08:40:55;;;;;;;5.72;4.80;;;;;;;22.55;100.00;99804.75;1777309;81;21036;-70
2022/09/27 08:43:44;;;;;;;8.48;5.05;;;;;;;22.27;100.00;99790.30;1771650;80;21147;-71
2022/09/27 08:46:38;;;;;;;7.03;5.17;;;;;;;22.40;100.00;99793.25;1748798;80;21114;-72
2022/09/27 08:49:13;;;;;;;8.58;5.50;;;;;;;22.44;100.00;99793.25;1761216;80;21084;-72
2022/09/27 08:51:42;;;;;;;6.53;5.33;;;;;;;22.36;100.00;99799.33;1770694;80;21055;-72
2022/09/27 08:54:18;;;;;;;7.22;5.47;;;;;;;22.20;100.00;99799.23;1763946;80;21051;-72
2022/09/27 08:56:51;;;;;;;6.87;5.45;;;;;;;22.06;100.00;99793.30;1748750;80;21000;-72
2022/09/27 08:59:20;;;;;;;6.60;5.20;;;;;;;21.84;100.00;99784.22;1750362;81;20980;-72
2022/09/27 09:01:49;;;;;;;9.68;4.97;;;;;;;21.67;100.00;99781.55;1753425;80;20983;-72
2022/09/27 09:04:39;;;;;;;7.90;5.30;;;;;;;21.43;100.00;99782.23;1756606;80;20992;-71
2022/09/27 09:07:21;;;;;;;7.55;5.28;;;;;;;21.32;100.00;99773.33;1692843;82;21003;-71
2022/09/27 09:09:56;;;;;;;6.62;5.45;;;;;;;21.25;100.00;99762.66;1758428;80;21062;-71
2022/09/27 09:12:45;;;;;;;7.30;5.35;;;;;;;21.21;100.00;99760.84;1744726;80;21038;-71
2022/09/27 09:15:53;;;;;;;6.20;5.53;;;;;;;21.09;100.00;99762.57;1756205;81;21025;-72
2022/09/27 09:18:23;;;;;;;8.48;4.70;;;;;;;20.99;100.00;99755.63;1750524;80;21010;-71
2022/09/27 09:21:12;;;;;;;6.37;4.97;;;;;;;20.95;100.00;99754.30;1748781;81;21052;-71
2022/09/27 09:23:48;;;;;;;6.80;4.70;;;;;;;20.96;100.00;99755.92;1730393;81;21072;-72
2022/09/27 09:26:33;;;;;;;8.28;4.95;;;;;;;20.97;100.00;99745.80;1734788;80;21067;-70
2022/09/27 09:29:38;;;;;;;8.58;5.05;;;;;;;21.10;100.00;99742.77;1716894;82;21106;-70
2022/09/27 09:32:23;;;;;;;6.80;4.40;;;;;;;21.22;100.00;99745.95;1681230;84;21629;-69
2022/09/27 09:35:01;;;;;;;7.20;4.72;;;;;;;21.25;100.00;99747.42;1720895;82;21031;-71
2022/09/27 09:37:51;;;;;;;8.58;4.72;;;;;;;21.30;100.00;99748.61;1713527;81;21720;-71
2022/09/27 09:40:49;;;;;;;8.65;4.83;;;;;;;21.36;100.00;99752.41;1713635;82;21083;-70
2022/09/27 09:43:27;;;;;;;7.40;4.92;;;;;;;21.46;100.00;99743.16;1679180;84;21091;-71
2022/09/27 09:46:02;;;;;;;8.25;5.42;;;;;;;21.59;100.00;99749.61;1693479;83;21005;-72
2022/09/27 09:49:03;;;;;;;8.50;6.25;;;;;;;21.65;100.00;99744.70;1699837;83;21052;-71
2022/09/27 09:51:42;;;;;;;8.75;6.50;;;;;;;21.84;100.00;99752.31;1758365;80;21146;-71
2022/09/27 09:54:26;;;;;;;7.42;5.95;;;;;;;21.91;100.00;99754.61;1753255;81;21500;-72
2022/09/27 09:57:07;;;;;;;8.83;6.60;;;;;;;21.81;100.00;99757.36;1769840;80;21058;-72
2022/09/27 09:59:53;;;;;;;10.00;6.40;;;;;;;21.68;100.00;99753.08;1723075;82;21069;-71
2022/09/27 10:02:34;;;;;;;8.33;5.72;;;;;;;21.56;100.00;99755.16;1755338;80;21097;-71
2022/09/27 10:05:06;;;;;;;7.85;5.72;;;;;;;21.39;100.00;99756.00;1774671;80;21029;-71
2022/09/27 10:07:37;;;;;;;8.20;5.80;;;;;;;21.40;100.00;99744.57;1760160;80;21051;-70
2022/09/27 10:10:10;;;;;;;8.97;5.50;;;;;;;21.38;100.00;99743.41;1767033;80;21059;-71
2022/09/27 10:12:49;;;;;;;6.80;4.97;;;;;;;21.31;100.00;99738.48;1707563;82;21270;-72
2022/09/27 10:15:20;;;;;;;7.00;5.05;;;;;;;21.23;100.00;99735.83;1722158;83;21067;-71
2022/09/27 10:17:55;;;;;;;6.92;4.72;;;;;;;21.25;100.00;99734.34;1681552;83;21103;-71
2022/09/27 10:20:44;;;;;;;6.87;4.62;;;;;;;21.24;100.00;99734.02;1739734;82;21071;-72
2022/09/27 10:23:20;;;;;;;9.15;4.72;;;;;;;21.16;100.00;99728.25;1728402;82;21046;-72
2022/09/27 10:25:56;;;;;;;7.50;4.58;;;;;;;21.21;100.00;99732.55;1729966;83;21009;-71
2022/09/27 10:28:42;;;;;;;6.22;5.10;;;;;;;21.19;100.00;99727.95;1704217;82;21075;-72
2022/09/27 10:31:17;;;;;;;5.42;4.50;;;;;;;21.16;100.00;99734.30;1722214;81;21042;-71
2022/09/27 10:34:00;;;;;;;5.33;4.03;;;;;;;21.06;100.00;99740.63;1706197;82;21051;-72
2022/09/27 10:36:32;;;;;;;5.35;4.33;;;;;;;21.06;100.00;99735.39;1705560;82;21113;-72
2022/09/27 10:39:05;;;;;;;6.30;4.42;;;;;;;21.08;100.00;99732.94;1706840;83;21007;-71
2022/09/27 10:41:40;;;;;;;6.42;4.30;;;;;;;21.07;100.00;99739.66;1705678;82;21054;-72
2022/09/27 10:44:24;;;;;;;5.80;4.40;;;;;;;21.11;100.00;99740.99;1706156;82;21086;-71
2022/09/27 10:47:00;;;;;;;5.10;4.47;;;;;;;21.15;100.00;99735.78;1733979;82;21105;-71
2022/09/27 10:49:39;;;;;;;5.45;4.28;;;;;;;21.31;100.00;99737.64;1713578;82;21966;-71
2022/09/27 10:52:21;;;;;;;5.87;4.58;;;;;;;21.26;100.00;99735.99;1722952;82;21047;-71
2022/09/27 10:54:58;;;;;;;7.60;4.37;;;;;;;21.36;100.00;99749.30;1718719;82;21018;-70
2022/09/27 10:57:28;;;;;;;6.10;4.30;;;;;;;21.46;100.00;99738.73;1715554;82;21037;-71
2022/09/27 11:00:05;;;;;;;5.10;4.47;;;;;;;21.46;100.00;99735.31;1714189;82;21118;-70
2022/09/27 11:02:36;;;;;;;7.00;4.37;;;;;;;21.47;100.00;99732.55;1719394;82;21069;-72
2022/09/27 11:05:16;;;;;;;5.40;4.20;;;;;;;21.57;100.00;99729.31;1711369;82;21057;-71
2022/09/27 11:07:51;;;;;;;;;;;;;;;21.74;100.00;99715.77;1701656;82;21509;-71
2022/09/27 11:10:32;;;;;;;5.80;4.15;;;;;;;21.83;100.00;99717.91;1710872;82;20452;-71
2022/09/27 11:13:19;;;;;;;6.33;4.58;;;;;;;22.01;100.00;99724.34;1722330;83;21093;-71
2022/09/27 11:16:12;;;;;;;5.17;4.25;;;;;;;21.91;100.00;99723.67;1718260;81;21073;-71
2022/09/27 11:19:18;;;;;;;6.87;4.42;;;;;;;22.05;100.00;99726.97;1725073;82;21557;-71
2022/09/27 11:22:04;;;;;;;6.50;4.30;;;;;;;22.05;100.00;99724.84;1706523;83;21554;-72
2022/09/27 11:24:59;;;;;;;7.10;4.30;;;;;;;22.03;100.00;99735.48;1719149;82;21089;-71
2022/09/27 11:27:49;;;;;;;6.95;4.30;;;;;;;21.93;100.00;99733.50;1757717;80;21040;-71
2022/09/27 11:30:20;;;;;;;7.12;4.12;;;;;;;21.86;100.00;99731.17;1752792;81;21036;-70
2022/09/27 11:33:23;;;;;;;5.30;4.12;;;;;;;21.55;100.00;99736.97;1752369;81;21088;-71
2022/09/27 11:36:07;;;;;;;7.25;4.47;;;;;;;21.76;100.00;99735.27;1753834;81;21115;-72
2022/09/27 11:38:56;;;;;;;5.37;4.25;;;;;;;21.75;100.00;99726.56;1756998;81;21108;-71
2022/09/27 11:41:47;;;;;;;4.70;4.22;;;;;;;21.67;100.00;99731.77;1745648;81;21068;-71
2022/09/27 11:44:42;;;;;;;7.17;4.22;;;;;;;21.52;100.00;99737.30;1752435;81;21536;-71
2022/09/27 11:47:40;;;;;;;5.45;4.35;;;;;;;21.43;100.00;99740.84;1756797;81;21526;-71
2022/09/27 11:50:47;;;;;;;5.00;4.12;;;;;;;21.19;100.00;99743.16;1755689;81;21053;-72
2022/09/27 11:53:40;;;;;;;9.45;4.30;;;;;;;21.10;100.00;99731.48;1749331;80;21080;-71
2022/09/27 11:56:26;;;;;;;6.65;4.47;;;;;;;20.94;100.00;99720.42;1745596;81;21005;-71
2022/09/27 11:59:07;;;;;;;5.37;4.42;;;;;;;20.86;100.00;99703.37;1739558;81;21172;-71
2022/09/27 12:02:07;;;;;;;6.60;5.08;;;;;;;20.72;100.00;99693.82;1753174;80;21022;-71
2022/09/27 12:05:13;;;;;;;5.40;4.50;;;;;;;20.63;100.00;99686.06;1726367;83;22635;-71
2022/09/27 12:07:56;;;;;;;6.78;4.85;;;;;;;20.48;100.00;99687.89;1711241;82;21074;-70